Time;durP1;ratioP1;P1;durP2;ratioP2;P2;SDS_P1;SDS_P2;PMS_P1;PMS_P2;Temp;Humidity;BMP_temperature;BMP_pressure;BME280_temperature;BME280_humidity;BME280_pressure;Samples;Min_cycle;Max_cycle;Signal;HPM_P1;HPM_P2
2024/05/03 00:00:47;;;;;;;9.13;6.00;;;21.90;65.60;;;;;;5451488;26;20526;-89
2024/05/03 00:03:16;;;;;;;5.40;4.73;;;21.80;65.70;;;;;;5453864;26;20556;-89
2024/05/03 00:05:44;;;;;;;4.40;4.10;;;21.80;66.20;;;;;;5459147;26;20530;-88
2024/05/03 00:08:13;;;;;;;4.90;4.50;;;21.80;66.20;;;;;;5461271;26;20469;-88
2024/05/03 00:10:41;;;;;;;6.47;5.10;;;21.80;66.40;;;;;;5462906;26;21023;-89
2024/05/03 00:13:12;;;;;;;6.07;4.83;;;21.80;66.60;;;;;;5461540;26;21130;-89
2024/05/03 00:15:41;;;;;;;5.27;4.77;;;21.90;66.80;;;;;;5457755;26;20923;-89
2024/05/03 00:18:09;;;;;;;5.27;4.77;;;22.10;67.00;;;;;;5450439;26;20582;-89
2024/05/03 00:20:37;;;;;;;8.63;5.90;;;21.90;66.80;;;;;;5428474;26;20489;-88
2024/05/03 00:23:06;;;;;;;5.80;5.20;;;22.30;66.90;;;;;;5460073;26;21087;-88
2024/05/03 00:25:35;;;;;;;6.30;4.63;;;22.10;66.60;;;;;;5459333;26;20484;-88
2024/05/03 00:28:03;;;;;;;6.73;5.63;;;22.10;66.40;;;;;;5490535;26;20472;-88
2024/05/03 00:30:34;;;;;;;6.50;4.60;;;22.10;66.40;;;;;;5474433;26;20545;-87
2024/05/03 00:33:02;;;;;;;5.90;5.30;;;22.10;66.50;;;;;;5464683;26;20476;-87
2024/05/03 00:35:31;;;;;;;5.00;4.60;;;22.10;66.70;;;;;;5460107;26;20600;-87
2024/05/03 00:37:59;;;;;;;5.07;4.70;;;22.10;66.90;;;;;;5434547;26;20543;-87
2024/05/03 00:40:28;;;;;;;6.63;4.67;;;22.20;67.40;;;;;;5452790;26;20541;-87
2024/05/03 00:42:56;;;;;;;7.27;4.87;;;22.20;67.20;;;;;;5478118;26;20580;-86
2024/05/03 00:45:24;;;;;;;5.77;5.00;;;22.20;67.00;;;;;;5489685;26;20512;-87
2024/05/03 00:47:56;;;;;;;9.50;4.97;;;22.20;67.30;;;;;;5490224;26;20476;-89
2024/05/03 00:50:24;;;;;;;8.33;4.37;;;22.20;67.50;;;;;;5478021;26;20481;-88
2024/05/03 00:52:54;;;;;;;4.77;4.37;;;22.20;67.80;;;;;;5461934;26;20459;-89
2024/05/03 00:55:24;;;;;;;5.80;5.30;;;22.20;68.10;;;;;;5494790;26;20472;-89
2024/05/03 00:57:52;;;;;;;8.30;5.13;;;22.10;68.50;;;;;;5493834;26;20996;-89
2024/05/03 01:00:22;;;;;;;5.47;5.07;;;22.00;68.60;;;;;;5489316;26;20577;-87
2024/05/03 01:02:51;;;;;;;6.73;4.53;;;22.00;68.60;;;;;;5486840;26;20475;-89
2024/05/03 01:05:22;;;;;;;6.27;5.40;;;22.00;68.80;;;;;;5503119;26;20481;-89
2024/05/03 01:07:51;;;;;;;5.03;4.53;;;22.20;69.50;;;;;;5479669;26;20531;-89
2024/05/03 01:10:19;;;;;;;8.43;5.10;;;21.90;69.30;;;;;;5483497;26;20574;-90
2024/05/03 01:12:48;;;;;;;5.40;4.90;;;21.90;69.50;;;;;;5461512;26;20477;-89
2024/05/03 01:15:16;;;;;;;6.33;5.70;;;21.90;69.70;;;;;;5457977;26;20485;-89
2024/05/03 01:17:45;;;;;;;5.80;5.07;;;21.90;69.90;;;;;;5459132;26;20540;-89
2024/05/03 01:20:14;;;;;;;5.67;5.17;;;21.90;70.10;;;;;;5460082;26;20481;-90
2024/05/03 01:22:46;;;;;;;5.90;5.30;;;21.90;70.30;;;;;;5465679;26;20473;-89
2024/05/03 01:25:18;;;;;;;9.00;5.50;;;22.00;70.80;;;;;;5463286;26;20477;-89
2024/05/03 01:27:46;;;;;;;5.17;4.87;;;21.70;70.80;;;;;;5439910;26;20497;-89
2024/05/03 01:30:15;;;;;;;7.13;5.43;;;21.90;71.20;;;;;;5460892;26;20464;-90
2024/05/03 01:32:43;;;;;;;8.23;4.97;;;21.70;71.30;;;;;;5453072;26;20543;-90
2024/05/03 01:35:12;;;;;;;6.13;4.80;;;21.70;71.40;;;;;;5461330;26;21186;-89
2024/05/03 01:37:40;;;;;;;11.27;5.60;;;21.60;71.40;;;;;;5459165;26;20934;-89
2024/05/03 01:40:10;;;;;;;5.97;5.37;;;21.60;72.00;;;;;;5465773;26;20600;-88
2024/05/03 01:42:41;;;;;;;5.83;5.33;;;21.60;72.20;;;;;;5450580;26;20481;-89
2024/05/03 01:45:10;;;;;;;5.70;5.20;;;21.50;73.30;;;;;;5476847;26;20476;-88
2024/05/03 01:47:38;;;;;;;5.30;4.90;;;21.40;72.90;;;;;;5489531;26;20566;-87
2024/05/03 01:50:07;;;;;;;7.03;5.30;;;21.50;73.30;;;;;;5490481;26;20495;-87
2024/05/03 01:52:35;;;;;;;7.80;6.03;;;21.20;73.70;;;;;;5460776;26;20540;-87
2024/05/03 01:55:04;;;;;;;6.90;5.60;;;21.10;74.30;;;;;;5461227;26;20460;-88
2024/05/03 01:57:33;;;;;;;5.33;4.83;;;21.10;74.80;;;;;;5453062;26;20609;-86
2024/05/03 02:00:04;;;;;;;8.10;5.50;;;20.90;75.20;;;;;;5447432;26;20616;-86
2024/05/03 02:02:32;;;;;;;8.13;5.63;;;20.90;75.90;;;;;;5439703;26;21088;-88
2024/05/03 02:05:01;;;;;;;8.20;6.03;;;20.70;76.50;;;;;;5453885;26;20473;-87
2024/05/03 02:07:29;;;;;;;5.83;5.43;;;20.60;76.90;;;;;;5486152;26;20515;-86
2024/05/03 02:09:57;;;;;;;9.87;6.63;;;20.80;77.70;;;;;;5467485;26;20627;-86
2024/05/03 02:12:26;;;;;;;6.20;5.70;;;20.50;78.40;;;;;;5454811;26;20480;-87
2024/05/03 02:14:54;;;;;;;6.83;5.33;;;20.40;79.00;;;;;;5427477;26;20602;-87
2024/05/03 02:17:25;;;;;;;6.80;6.20;;;20.40;79.60;;;;;;5502483;21;20615;-84
2024/05/03 02:19:54;;;;;;;6.30;5.30;;;20.40;80.20;;;;;;5457462;26;20543;-84
2024/05/03 02:22:22;;;;;;;6.03;5.43;;;20.40;80.50;;;;;;5468973;26;20587;-83
2024/05/03 02:24:51;;;;;;;10.97;6.37;;;20.20;81.00;;;;;;5497236;26;20598;-84
2024/05/03 02:27:34;;;;;;;6.53;5.83;;;20.10;82.10;;;;;;5470671;26;20469;-85
2024/05/03 02:30:03;;;;;;;8.27;5.73;;;20.10;82.90;;;;;;5455481;26;20469;-82
2024/05/03 02:32:34;;;;;;;5.87;5.37;;;20.20;87.70;;;;;;5430486;26;20454;-83
2024/05/03 02:35:02;;;;;;;7.73;6.13;;;20.50;89.10;;;;;;5458904;26;20527;-83
2024/05/03 02:37:30;;;;;;;7.20;6.53;;;20.50;90.40;;;;;;5430180;26;20473;-83
2024/05/03 02:40:04;;;;;;;7.70;6.03;;;20.20;91.00;;;;;;5442143;26;20482;-83
2024/05/03 02:42:33;;;;;;;6.83;6.17;;;20.50;92.70;;;;;;5434278;26;20554;-84
2024/05/03 02:45:16;;;;;;;9.70;6.17;;;20.40;95.70;;;;;;5467512;26;20599;-84
2024/05/03 02:47:47;;;;;;;7.07;6.00;;;20.20;99.90;;;;;;5471455;26;20904;-85
2024/05/03 02:50:17;;;;;;;7.30;6.70;;;;;;;;;;5460770;26;20486;-84
2024/05/03 02:52:45;;;;;;;7.47;6.40;;;20.00;99.90;;;;;;5437076;26;20470;-84
2024/05/03 02:55:16;;;;;;;8.17;6.30;;;19.70;99.90;;;;;;5440170;26;20494;-85
2024/05/03 02:57:44;;;;;;;10.00;6.60;;;20.20;99.90;;;;;;5450286;26;20476;-83
2024/05/03 03:00:13;;;;;;;7.10;6.40;;;19.90;99.90;;;;;;5452410;26;20530;-83
2024/05/03 03:02:51;;;;;;;7.80;7.10;;;;;;;;;;5445087;26;20576;-84
2024/05/03 03:05:19;;;;;;;6.17;5.73;;;19.80;99.90;;;;;;5436702;26;20475;-85
2024/05/03 03:07:48;;;;;;;9.73;6.60;;;20.00;99.90;;;;;;5441555;26;21426;-84
2024/05/03 03:10:16;;;;;;;7.50;6.07;;;20.00;99.90;;;;;;5460952;26;20477;-84
2024/05/03 03:12:45;;;;;;;7.90;6.00;;;20.10;99.90;;;;;;5455306;26;20461;-87
2024/05/03 03:15:14;;;;;;;6.67;6.10;;;20.10;99.90;;;;;;5441608;26;20476;-85
2024/05/03 03:17:45;;;;;;;8.07;6.73;;;20.10;99.90;;;;;;5443206;26;20498;-85
2024/05/03 03:20:16;;;;;;;7.87;6.63;;;20.20;99.90;;;;;;5439687;26;20472;-84
2024/05/03 03:22:44;;;;;;;7.30;6.07;;;20.20;99.90;;;;;;5469278;26;20484;-84
2024/05/03 03:25:15;;;;;;;10.93;6.53;;;20.20;99.90;;;;;;5441569;26;20560;-84
2024/05/03 03:27:43;;;;;;;7.43;6.10;;;20.30;99.90;;;;;;5449505;26;20589;-85
2024/05/03 03:30:13;;;;;;;7.50;6.83;;;20.30;99.90;;;;;;5433628;26;20563;-84
2024/05/03 03:32:42;;;;;;;9.57;7.00;;;20.10;99.90;;;;;;5435099;26;20477;-84
2024/05/03 03:35:11;;;;;;;8.03;6.10;;;20.10;99.90;;;;;;5463799;26;20556;-84
2024/05/03 03:37:48;;;;;;;7.63;6.80;;;20.30;99.90;;;;;;5436603;26;20493;-84
2024/05/03 03:40:25;;;;;;;6.73;6.13;;;20.10;99.90;;;;;;5449470;26;20476;-84
2024/05/03 03:42:53;;;;;;;7.67;6.43;;;20.00;99.90;;;;;;5438879;26;20581;-84
2024/05/03 03:45:22;;;;;;;7.00;6.40;;;19.90;99.90;;;;;;5436516;26;20572;-84
2024/05/03 03:47:50;;;;;;;9.73;7.23;;;20.20;99.90;;;;;;5448226;26;20563;-84
2024/05/03 03:50:21;;;;;;;6.90;6.30;;;19.80;99.90;;;;;;5468990;26;20549;-84
2024/05/03 03:53:04;;;;;;;8.13;6.10;;;19.80;99.90;;;;;;5440871;26;20589;-84
2024/05/03 03:55:33;;;;;;;7.30;6.70;;;19.80;99.90;;;;;;5449861;26;20467;-83
2024/05/03 03:58:01;;;;;;;8.73;6.60;;;19.90;99.90;;;;;;5466868;26;20578;-83
2024/05/03 04:00:30;;;;;;;6.93;6.40;;;20.00;99.90;;;;;;5456632;26;20475;-85
2024/05/03 04:02:59;;;;;;;10.00;6.23;;;19.80;99.50;;;;;;5454001;26;20476;-84
2024/05/03 04:05:27;;;;;;;7.07;6.57;;;19.80;99.50;;;;;;5437110;26;20471;-84
2024/05/03 04:07:59;;;;;;;8.93;6.80;;;19.80;99.10;;;;;;5440836;26;20579;-86
2024/05/03 04:10:41;;;;;;;7.67;6.17;;;19.70;99.10;;;;;;5453754;26;20484;-84
2024/05/03 04:13:12;;;;;;;6.50;6.03;;;19.70;99.70;;;;;;5469054;26;20483;-84
2024/05/03 04:15:41;;;;;;;7.13;6.53;;;19.90;99.70;;;;;;5433203;26;20469;-85
2024/05/03 04:18:09;;;;;;;6.97;6.37;;;19.70;99.40;;;;;;5449817;26;20567;-84
2024/05/03 04:20:38;;;;;;;6.90;6.30;;;19.70;99.60;;;;;;5446972;26;20481;-82
2024/05/03 04:23:18;;;;;;;6.90;6.40;;;19.70;99.80;;;;;;5446749;26;20472;-83
2024/05/03 04:25:46;;;;;;;6.60;6.20;;;19.70;99.90;;;;;;5430663;26;20534;-83
2024/05/03 04:28:15;;;;;;;6.07;5.67;;;19.60;99.90;;;;;;5447352;26;20595;-84
2024/05/03 04:30:43;;;;;;;6.63;6.00;;;19.70;99.90;;;;;;5440811;26;20485;-83
2024/05/03 04:33:12;;;;;;;6.40;5.73;;;19.70;99.90;;;;;;5467306;26;20476;-83
2024/05/03 04:35:40;;;;;;;12.00;6.30;;;19.80;99.90;;;;;;5434274;26;20561;-83
2024/05/03 04:38:08;;;;;;;6.03;5.60;;;19.90;99.90;;;;;;5442337;26;20549;-83
2024/05/03 04:40:40;;;;;;;5.13;4.83;;;19.90;99.90;;;;;;5452561;26;20559;-84
2024/05/03 04:43:08;;;;;;;7.20;6.20;;;20.00;99.90;;;;;;5437005;26;20470;-84
2024/05/03 04:45:37;;;;;;;5.70;5.20;;;20.00;99.90;;;;;;5461371;26;20476;-84
2024/05/03 04:48:05;;;;;;;5.63;5.17;;;20.00;99.90;;;;;;5453347;26;20471;-86
2024/05/03 04:50:34;;;;;;;6.47;5.73;;;20.00;99.90;;;;;;5439220;26;20490;-85
2024/05/03 04:53:06;;;;;;;7.10;6.47;;;20.00;99.90;;;;;;5442800;26;20486;-84
2024/05/03 04:55:34;;;;;;;6.47;5.97;;;20.00;99.90;;;;;;5464534;26;20480;-86
2024/05/03 04:58:06;;;;;;;6.40;5.90;;;19.90;99.90;;;;;;5455663;26;20561;-84
2024/05/03 05:00:34;;;;;;;6.23;5.60;;;20.00;99.90;;;;;;5434395;26;20488;-83
2024/05/03 05:03:03;;;;;;;5.80;5.23;;;20.00;99.90;;;;;;5436365;26;20574;-82
2024/05/03 05:05:31;;;;;;;5.60;5.20;;;20.00;99.90;;;;;;5442035;26;21035;-83
2024/05/03 05:08:00;;;;;;;6.37;5.77;;;20.00;99.90;;;;;;5457510;26;20493;-83
2024/05/03 05:10:28;;;;;;;6.40;5.70;;;20.20;99.90;;;;;;5428410;26;20501;-84
2024/05/03 05:13:01;;;;;;;6.13;5.53;;;20.00;99.90;;;;;;5444101;26;20485;-81
2024/05/03 05:15:32;;;;;;;5.90;5.50;;;20.00;99.90;;;;;;5438886;26;21113;-81
2024/05/03 05:18:01;;;;;;;5.83;5.33;;;20.00;99.90;;;;;;5434498;26;20546;-81
2024/05/03 05:20:29;;;;;;;5.90;5.30;;;20.00;99.90;;;;;;5439436;26;20577;-82
2024/05/03 05:22:55;;;;;;;7.60;5.80;;;20.00;99.90;;;;;;5446657;26;20601;-81
2024/05/03 05:25:24;;;;;;;6.70;6.07;;;20.00;99.90;;;;;;5429791;26;20466;-81
2024/05/03 05:27:50;;;;;;;6.03;5.53;;;20.00;99.90;;;;;;5442231;26;20473;-81
2024/05/03 05:30:19;;;;;;;6.47;5.90;;;20.10;99.90;;;;;;5430515;26;20994;-82
2024/05/03 05:32:55;;;;;;;6.47;5.87;;;20.00;99.90;;;;;;5435087;26;20537;-81
2024/05/03 05:35:24;;;;;;;5.93;5.53;;;19.90;99.90;;;;;;5432165;26;20581;-81
2024/05/03 05:37:52;;;;;;;6.13;5.53;;;20.00;99.90;;;;;;5443140;26;20606;-82
2024/05/03 05:40:20;;;;;;;7.73;5.70;;;20.00;99.90;;;;;;5428097;26;20557;-80
2024/05/03 05:42:49;;;;;;;6.67;5.43;;;20.00;99.90;;;;;;5422733;26;20549;-78
2024/05/03 05:45:17;;;;;;;7.10;6.50;;;20.00;99.90;;;;;;5410192;26;21046;-78
2024/05/03 05:47:46;;;;;;;6.03;5.30;;;20.00;99.90;;;;;;5433580;26;20541;-79
2024/05/03 05:50:17;;;;;;;6.60;5.30;;;19.90;99.90;;;;;;5434340;26;20490;-81
2024/05/03 05:52:45;;;;;;;10.57;6.97;;;19.90;99.90;;;;;;5444855;26;20544;-81
2024/05/03 05:55:14;;;;;;;6.47;4.90;;;20.30;99.90;;;;;;5426281;26;21355;-82
2024/05/03 05:57:44;;;;;;;7.83;5.60;;;20.10;99.90;;;;;;5438248;26;20475;-81
2024/05/03 06:00:13;;;;;;;8.60;5.87;;;20.10;99.90;;;;;;5424795;26;21085;-81
2024/05/03 06:02:41;;;;;;;6.57;5.97;;;20.20;99.90;;;;;;5442661;26;20484;-82
2024/05/03 06:05:10;;;;;;;5.70;5.37;;;20.30;99.90;;;;;;5438467;26;20478;-81
2024/05/03 06:07:41;;;;;;;11.83;6.00;;;20.30;99.90;;;;;;5422477;26;20475;-81
2024/05/03 06:10:09;;;;;;;5.30;4.90;;;20.40;99.90;;;;;;5421253;26;20553;-82
2024/05/03 06:12:38;;;;;;;8.47;6.70;;;20.40;99.90;;;;;;5423691;26;20489;-81
2024/05/03 06:15:07;;;;;;;7.23;6.17;;;20.80;99.90;;;;;;5420206;26;20881;-81
2024/05/03 06:17:36;;;;;;;7.07;6.37;;;20.50;99.90;;;;;;5444630;26;20541;-82
2024/05/03 06:20:06;;;;;;;6.30;5.80;;;20.60;99.90;;;;;;5455001;26;20481;-81
2024/05/03 06:22:34;;;;;;;9.97;7.40;;;20.60;99.90;;;;;;5435307;26;21020;-83
2024/05/03 06:25:06;;;;;;;7.50;6.80;;;21.00;99.90;;;;;;5428427;26;20632;-82
2024/05/03 06:27:35;;;;;;;5.40;5.10;;;20.70;99.90;;;;;;5429771;26;20471;-82
2024/05/03 06:30:03;;;;;;;7.17;6.20;;;20.70;99.90;;;;;;5434413;26;20461;-82
2024/05/03 06:32:32;;;;;;;8.07;6.40;;;20.80;99.90;;;;;;5419119;26;20617;-82
2024/05/03 06:35:00;;;;;;;7.50;6.80;;;21.10;99.90;;;;;;5422124;26;21017;-83
2024/05/03 06:37:29;;;;;;;8.93;6.00;;;21.10;99.90;;;;;;5435435;26;20561;-84
2024/05/03 06:39:58;;;;;;;5.97;5.47;;;20.90;99.90;;;;;;5418925;26;20595;-82
2024/05/03 06:42:29;;;;;;;6.70;6.10;;;21.00;99.90;;;;;;5437477;26;20481;-82
2024/05/03 06:44:57;;;;;;;6.50;6.00;;;21.10;99.90;;;;;;5440030;26;21020;-82
2024/05/03 06:47:25;;;;;;;6.27;5.80;;;21.20;99.90;;;;;;5432871;26;20596;-84
2024/05/03 06:49:54;;;;;;;7.10;6.50;;;21.60;99.90;;;;;;5430686;26;20474;-84
2024/05/03 06:52:22;;;;;;;6.50;5.47;;;21.40;99.90;;;;;;5438608;26;20571;-89
2024/05/03 06:54:51;;;;;;;6.63;6.03;;;21.50;99.90;;;;;;5452478;26;20478;-87
2024/05/03 06:57:19;;;;;;;5.90;5.40;;;21.60;99.90;;;;;;5436821;26;20524;-87
2024/05/03 06:59:50;;;;;;;6.43;5.83;;;21.70;99.90;;;;;;5438651;26;20601;-86
2024/05/03 07:02:19;;;;;;;6.13;5.63;;;21.70;99.90;;;;;;5435819;26;20620;-88
2024/05/03 07:04:47;;;;;;;6.30;5.90;;;21.90;99.90;;;;;;5448714;26;20484;-89
2024/05/03 07:07:17;;;;;;;7.03;6.43;;;21.90;99.90;;;;;;5436854;26;20495;-87
2024/05/03 07:09:46;;;;;;;7.00;6.47;;;21.90;99.90;;;;;;5445788;26;20477;-87
2024/05/03 07:12:14;;;;;;;6.60;5.63;;;22.10;99.90;;;;;;5444623;26;20486;-88
2024/05/03 07:14:43;;;;;;;6.40;5.90;;;22.00;99.90;;;;;;5429005;26;20471;-86
2024/05/03 07:17:14;;;;;;;6.23;5.60;;;22.00;99.90;;;;;;5423556;26;20483;-88
2024/05/03 07:19:42;;;;;;;6.00;5.10;;;22.00;99.90;;;;;;5448527;26;20477;-88
2024/05/03 07:22:12;;;;;;;5.30;4.90;;;22.10;99.90;;;;;;5446517;26;21120;-87
2024/05/03 07:24:40;;;;;;;9.20;5.80;;;22.20;99.90;;;;;;5438986;26;20477;-88
2024/05/03 07:27:09;;;;;;;4.77;4.47;;;22.20;99.90;;;;;;5434721;26;20487;-88
2024/05/03 07:29:37;;;;;;;5.00;4.60;;;22.20;99.90;;;;;;5433399;26;20494;-86
2024/05/03 07:32:12;;;;;;;6.10;5.53;;;22.30;99.90;;;;;;5432625;26;20482;-87
2024/05/03 07:34:43;;;;;;;5.17;4.83;;;22.30;99.90;;;;;;5432229;26;20478;-88
2024/05/03 07:37:11;;;;;;;5.17;4.77;;;22.40;99.90;;;;;;5427839;26;20473;-90
2024/05/03 07:39:39;;;;;;;4.83;4.50;;;22.40;99.90;;;;;;5428169;26;20591;-87
2024/05/03 07:42:08;;;;;;;9.07;8.07;;;22.40;99.90;;;;;;5447560;26;20489;-88
2024/05/03 07:44:36;;;;;;;5.30;4.90;;;22.50;99.90;;;;;;5437979;26;20519;-86
2024/05/03 07:47:05;;;;;;;9.43;4.40;;;22.50;99.90;;;;;;5447327;26;21023;-86
2024/05/03 07:49:33;;;;;;;5.50;5.10;;;22.50;99.90;;;;;;5430958;26;20530;-85
2024/05/03 07:52:05;;;;;;;4.97;4.57;;;22.40;99.90;;;;;;5431519;26;20495;-87
2024/05/03 07:54:33;;;;;;;4.53;4.23;;;22.40;99.90;;;;;;5434284;26;20477;-85
2024/05/03 07:57:01;;;;;;;5.20;4.70;;;22.30;99.90;;;;;;5438677;26;20526;-84
2024/05/03 07:59:30;;;;;;;4.63;4.33;;;22.30;99.90;;;;;;5425149;26;20575;-87
2024/05/03 08:01:58;;;;;;;5.80;5.40;;;22.30;99.90;;;;;;5427073;26;20478;-89
2024/05/03 08:04:27;;;;;;;5.07;4.70;;;22.20;99.90;;;;;;5443218;26;20558;-88
2024/05/03 08:06:55;;;;;;;4.50;4.10;;;22.20;99.90;;;;;;5440638;26;20577;-88
2024/05/03 08:09:27;;;;;;;5.00;4.60;;;22.20;99.90;;;;;;5443704;26;20482;-89
2024/05/03 08:11:56;;;;;;;4.00;3.70;;;22.30;99.90;;;;;;5435197;26;20473;-88
2024/05/03 08:14:25;;;;;;;4.20;3.90;;;22.30;99.90;;;;;;5445952;26;20560;-87
2024/05/03 08:16:53;;;;;;;3.97;3.77;;;22.50;99.90;;;;;;5426930;26;20482;-88
2024/05/03 08:19:21;;;;;;;3.93;3.60;;;23.00;99.90;;;;;;5447076;26;20622;-88
2024/05/03 08:21:50;;;;;;;4.20;4.00;;;22.80;99.40;;;;;;5443381;26;21153;-88
2024/05/03 08:24:16;;;;;;;3.97;3.77;;;23.00;99.30;;;;;;5431258;26;20576;-88
2024/05/03 08:26:47;;;;;;;3.70;3.40;;;23.10;99.30;;;;;;5426398;26;21021;-88
2024/05/03 08:29:15;;;;;;;4.57;3.60;;;23.50;99.90;;;;;;5418678;26;20237;-88
2024/05/03 08:31:44;;;;;;;3.60;3.40;;;23.50;99.00;;;;;;5434113;26;20833;-87
2024/05/03 08:34:12;;;;;;;3.30;3.10;;;23.60;98.50;;;;;;5441031;26;20523;-88
2024/05/03 08:36:41;;;;;;;2.80;2.70;;;23.70;98.10;;;;;;5434943;26;20471;-88
2024/05/03 08:39:10;;;;;;;3.17;3.07;;;23.80;97.20;;;;;;5430828;26;20479;-88
2024/05/03 08:41:56;;;;;;;2.77;2.57;;;23.80;97.10;;;;;;5418452;26;21005;-88
2024/05/03 08:44:31;;;;;;;2.60;2.50;;;23.80;97.10;;;;;;5417687;26;20511;-88
2024/05/03 08:47:03;;;;;;;3.00;2.80;;;23.80;96.70;;;;;;5440418;26;20621;-88
2024/05/03 08:49:35;;;;;;;3.30;3.10;;;23.70;96.60;;;;;;5433236;26;20553;-88
2024/05/03 08:52:11;;;;;;;2.80;2.70;;;23.80;97.00;;;;;;5417163;26;20593;-89
2024/05/03 08:54:43;;;;;;;2.50;2.40;;;23.80;96.90;;;;;;5432841;26;21049;-89
2024/05/03 08:57:14;;;;;;;2.70;2.50;;;24.00;96.80;;;;;;5428654;26;20493;-88
2024/05/03 08:59:46;;;;;;;2.47;2.37;;;24.00;96.20;;;;;;5432918;26;20983;-89
2024/05/03 09:02:14;;;;;;;2.40;2.30;;;24.10;96.10;;;;;;5427687;26;21064;-88
2024/05/03 09:04:43;;;;;;;2.50;2.40;;;23.90;96.20;;;;;;5425011;26;20592;-88
2024/05/03 09:07:13;;;;;;;2.67;2.57;;;23.80;96.10;;;;;;5417124;26;21156;-88
2024/05/03 09:09:47;;;;;;;3.20;3.00;;;23.80;96.10;;;;;;5418747;26;20546;-89
2024/05/03 09:12:20;;;;;;;2.80;2.60;;;23.70;96.00;;;;;;5434492;26;20606;-90
2024/05/03 09:14:49;;;;;;;2.83;2.73;;;23.60;96.20;;;;;;5452588;26;20529;-89
2024/05/03 09:17:18;;;;;;;2.20;2.10;;;23.50;96.60;;;;;;5423763;26;20470;-88
2024/05/03 09:19:46;;;;;;;2.30;2.07;;;23.50;96.60;;;;;;5426415;26;20522;-88
2024/05/03 09:22:15;;;;;;;3.30;3.07;;;23.40;96.60;;;;;;5440492;26;20522;-88
2024/05/03 09:24:50;;;;;;;2.20;2.10;;;23.40;97.20;;;;;;5423845;26;20537;-88
2024/05/03 09:27:24;;;;;;;2.00;1.90;;;23.60;97.00;;;;;;5439477;26;20494;-89
2024/05/03 09:29:53;;;;;;;2.20;2.10;;;23.70;96.90;;;;;;5436361;26;20476;-89
2024/05/03 09:32:22;;;;;;;2.07;1.97;;;23.70;96.90;;;;;;5450493;26;20481;-88
2024/05/03 09:34:51;;;;;;;2.50;2.30;;;23.70;96.70;;;;;;5427647;26;20513;-89
2024/05/03 09:37:19;;;;;;;1.87;1.77;;;23.70;96.90;;;;;;5420525;26;20997;-88
2024/05/03 09:39:48;;;;;;;2.43;2.00;;;23.70;97.10;;;;;;5426067;26;21065;-88
2024/05/03 09:42:16;;;;;;;2.03;1.93;;;23.60;96.90;;;;;;5433399;26;20536;-88
2024/05/03 09:44:48;;;;;;;2.50;2.40;;;23.50;97.00;;;;;;5430281;26;20466;-89
2024/05/03 09:47:21;;;;;;;2.00;1.90;;;23.60;97.00;;;;;;5431458;26;20968;-88
2024/05/03 09:49:50;;;;;;;2.40;2.30;;;23.80;97.10;;;;;;5428919;26;20467;-89
2024/05/03 09:52:32;;;;;;;2.70;2.50;;;24.20;96.50;;;;;;5422397;26;20486;-88
2024/05/03 09:55:19;;;;;;;3.00;2.80;;;24.50;95.80;;;;;;5428439;26;20473;-88
2024/05/03 09:57:49;;;;;;;3.17;2.97;;;24.60;95.10;;;;;;5419566;26;20538;-88
2024/05/03 10:00:24;;;;;;;2.50;2.40;;;24.60;95.00;;;;;;5422633;26;20932;-88
2024/05/03 10:02:58;;;;;;;2.90;2.70;;;24.60;95.10;;;;;;5437072;26;20458;-88
2024/05/03 10:05:30;;;;;;;3.33;3.13;;;24.60;95.20;;;;;;5451217;26;20471;-88
2024/05/03 10:07:59;;;;;;;2.93;2.77;;;24.50;95.00;;;;;;5421252;26;20481;-88
2024/05/03 10:10:29;;;;;;;3.10;2.90;;;24.50;95.00;;;;;;5430274;26;20858;-88
2024/05/03 10:12:58;;;;;;;4.50;2.80;;;24.50;95.10;;;;;;5420158;26;20458;-89
2024/05/03 10:15:31;;;;;;;3.77;3.57;;;24.40;95.00;;;;;;5448960;26;20453;-88
2024/05/03 10:18:00;;;;;;;3.93;3.73;;;24.40;95.00;;;;;;5450016;26;20482;-89
2024/05/03 10:20:30;;;;;;;4.70;4.40;;;24.30;94.90;;;;;;5437207;26;20526;-88
2024/05/03 10:22:59;;;;;;;5.17;4.77;;;24.30;95.10;;;;;;5433027;26;20592;-89
2024/05/03 10:25:28;;;;;;;3.70;3.40;;;24.20;95.30;;;;;;5422011;26;20458;-88
2024/05/03 10:27:57;;;;;;;3.00;2.80;;;24.10;95.40;;;;;;5430575;26;20478;-89
2024/05/03 10:30:31;;;;;;;2.90;2.80;;;24.10;95.40;;;;;;5441053;26;20477;-89
2024/05/03 10:33:00;;;;;;;3.27;3.17;;;24.30;95.60;;;;;;5448440;26;20537;-89
2024/05/03 10:35:29;;;;;;;2.90;2.80;;;24.20;95.40;;;;;;5431176;26;21025;-89
2024/05/03 10:37:59;;;;;;;2.13;2.03;;;24.00;95.20;;;;;;5446842;26;20582;-89
2024/05/03 10:40:29;;;;;;;2.77;2.33;;;23.90;94.90;;;;;;5428124;26;20523;-89
2024/05/03 10:42:58;;;;;;;2.60;2.50;;;23.70;95.00;;;;;;5444510;26;20493;-89
2024/05/03 10:45:30;;;;;;;2.40;2.30;;;23.50;95.40;;;;;;5441912;26;20543;-89
2024/05/03 10:48:00;;;;;;;2.20;2.10;;;23.50;95.50;;;;;;5445141;26;20548;-90
2024/05/03 10:50:28;;;;;;;2.30;2.20;;;23.40;95.30;;;;;;5439645;26;20479;-89
2024/05/03 10:52:57;;;;;;;3.03;2.60;;;23.20;95.50;;;;;;5436424;26;20509;-88
2024/05/03 10:55:27;;;;;;;2.13;2.03;;;23.10;95.60;;;;;;5465703;26;20550;-90
2024/05/03 10:57:56;;;;;;;2.40;2.30;;;23.00;95.80;;;;;;5450177;26;20490;-89
2024/05/03 11:00:24;;;;;;;2.33;2.23;;;22.90;96.00;;;;;;5441288;26;21045;-88
2024/05/03 11:02:55;;;;;;;2.70;2.60;;;22.90;96.00;;;;;;5458422;26;20556;-89
2024/05/03 11:05:24;;;;;;;2.33;2.23;;;22.80;95.90;;;;;;5437511;26;20552;-89
2024/05/03 11:07:53;;;;;;;2.30;2.20;;;22.80;96.00;;;;;;5448158;26;20557;-89
2024/05/03 11:10:22;;;;;;;2.40;2.30;;;22.80;96.40;;;;;;5437747;26;20489;-90
2024/05/03 11:12:51;;;;;;;2.20;2.10;;;22.70;96.10;;;;;;5448911;26;20584;-89
2024/05/03 11:15:20;;;;;;;2.47;2.37;;;22.80;96.60;;;;;;5449440;26;20487;-89
2024/05/03 11:17:49;;;;;;;2.73;2.50;;;22.80;96.50;;;;;;5439799;26;20484;-90
2024/05/03 11:20:20;;;;;;;3.10;2.30;;;22.80;96.70;;;;;;5442029;26;20976;-89
2024/05/03 11:22:48;;;;;;;1.87;1.80;;;22.70;96.50;;;;;;5441054;26;20538;-89
2024/05/03 11:25:17;;;;;;;1.73;1.63;;;22.60;96.60;;;;;;5446102;26;20562;-89
2024/05/03 11:27:47;;;;;;;1.97;1.87;;;22.60;96.60;;;;;;5453132;26;20957;-89
2024/05/03 11:30:19;;;;;;;2.20;2.10;;;22.50;96.60;;;;;;5445231;26;20489;-89
2024/05/03 11:32:48;;;;;;;2.40;2.30;;;22.40;97.10;;;;;;5447036;26;20482;-89
2024/05/03 11:35:25;;;;;;;2.17;2.07;;;22.30;97.60;;;;;;5449305;26;20477;-89
2024/05/03 11:37:56;;;;;;;2.67;2.57;;;22.10;98.20;;;;;;5466344;26;20464;-88
2024/05/03 11:40:27;;;;;;;2.90;2.80;;;22.20;98.40;;;;;;5447206;26;20522;-89
2024/05/03 11:42:56;;;;;;;3.33;2.97;;;22.10;98.50;;;;;;5443757;26;21191;-91
2024/05/03 11:45:25;;;;;;;2.40;2.30;;;22.00;98.40;;;;;;5440328;26;20507;-89
2024/05/03 11:47:54;;;;;;;2.87;2.77;;;22.00;98.60;;;;;;5447980;26;20563;-89
2024/05/03 11:50:25;;;;;;;2.90;2.77;;;22.40;98.90;;;;;;5439506;26;20490;-90
2024/05/03 11:52:54;;;;;;;2.27;2.17;;;22.30;98.90;;;;;;5444277;26;20486;-89
2024/05/03 11:55:23;;;;;;;2.90;2.80;;;22.30;98.80;;;;;;5446720;26;20545;-87
2024/05/03 11:57:51;;;;;;;2.30;2.20;;;22.30;98.60;;;;;;5445623;26;20576;-89
2024/05/03 12:00:20;;;;;;;2.67;2.57;;;22.30;98.60;;;;;;5448474;26;20605;-88
2024/05/03 12:02:48;;;;;;;2.90;2.80;;;22.30;98.50;;;;;;5450586;26;20459;-88
2024/05/03 12:05:17;;;;;;;2.80;2.70;;;22.30;98.40;;;;;;5436730;26;21017;-88
2024/05/03 12:07:48;;;;;;;2.33;2.23;;;22.40;98.70;;;;;;5433047;26;20477;-88
2024/05/03 12:10:17;;;;;;;2.67;2.57;;;22.20;98.90;;;;;;5432021;26;20501;-87
2024/05/03 12:12:45;;;;;;;2.60;2.50;;;22.30;98.90;;;;;;5454030;26;21157;-88
2024/05/03 12:15:14;;;;;;;2.93;2.73;;;22.20;98.90;;;;;;5426568;26;20498;-88
2024/05/03 12:17:42;;;;;;;3.20;3.10;;;22.30;98.90;;;;;;5446515;26;20465;-87
2024/05/03 12:20:11;;;;;;;3.33;3.13;;;22.20;98.90;;;;;;5426651;26;20597;-89
2024/05/03 12:22:41;;;;;;;3.10;3.00;;;22.20;99.10;;;;;;5438630;26;20493;-88
2024/05/03 12:25:12;;;;;;;3.10;2.97;;;22.20;99.00;;;;;;5441565;26;20593;-88
2024/05/03 12:27:40;;;;;;;3.37;3.17;;;22.10;99.10;;;;;;5441327;26;20535;-89
2024/05/03 12:30:10;;;;;;;4.10;3.90;;;22.10;99.50;;;;;;5440985;26;20600;-88
2024/05/03 12:32:38;;;;;;;3.90;3.70;;;22.10;99.80;;;;;;5427441;26;21053;-88
2024/05/03 12:35:07;;;;;;;3.07;2.90;;;22.00;99.40;;;;;;5429644;26;20596;-88
2024/05/03 12:37:35;;;;;;;2.93;2.83;;;22.10;99.70;;;;;;5438057;26;20564;-89
2024/05/03 12:40:04;;;;;;;3.10;3.00;;;22.10;99.60;;;;;;5434756;26;20777;-88
2024/05/03 12:42:35;;;;;;;3.27;3.17;;;22.10;99.60;;;;;;5446667;26;20538;-88
2024/05/03 12:45:04;;;;;;;3.40;3.20;;;22.10;99.40;;;;;;5445651;26;20578;-88
2024/05/03 12:47:34;;;;;;;3.33;3.20;;;22.10;99.30;;;;;;5426150;26;20832;-88
2024/05/03 12:50:02;;;;;;;3.70;3.50;;;22.30;99.50;;;;;;5446513;26;20549;-88
2024/05/03 12:52:31;;;;;;;3.60;3.30;;;22.30;99.40;;;;;;5431511;26;20546;-89
2024/05/03 12:55:00;;;;;;;3.40;3.30;;;22.00;99.00;;;;;;5461381;26;20564;-88
2024/05/03 12:57:29;;;;;;;3.30;3.20;;;22.00;99.30;;;;;;5433892;26;20486;-88
2024/05/03 13:00:00;;;;;;;3.83;3.63;;;22.00;99.10;;;;;;5436242;26;20640;-87